Time;durP1;ratioP1;P1;durP2;ratioP2;P2;SDS_P1;SDS_P2;PMS_P1;PMS_P2;Temp;Humidity;BMP_temperature;BMP_pressure;BME280_temperature;BME280_humidity;BME280_pressure;Samples;Min_cycle;Max_cycle;Signal;HPM_P1;HPM_P2
2024/02/03 00:02:45;;;;;;;17.6;7.2;;;;;;;5.58;80.49;98755;;;;
2024/02/03 00:13:46;;;;;;;17.6;7.2;;;;;;;5.94;78.19;98750;;;;
2024/02/03 00:23:45;;;;;;;11.2;6.4;;;;;;;6.26;76.98;98745;;;;
2024/02/03 00:34:46;;;;;;;11.2;6.4;;;;;;;6.48;76.73;98753.333333333;;;;
2024/02/03 00:45:45;;;;;;;11.2;6.4;;;;;;;6.51;77.82;98743.333333333;;;;
2024/02/03 00:56:46;;;;;;;9;5.8;;;;;;;6.5;77.85;98758.333333333;;;;
2024/02/03 01:07:45;;;;;;;9;5.8;;;;;;;6.5;78.6;98760;;;;
2024/02/03 01:18:46;;;;;;;9;5.8;;;;;;;6.39;79.4;98766.666666667;;;;
2024/02/03 01:29:45;;;;;;;7.6;4.4;;;;;;;6.39;80.32;98753.333333333;;;;
2024/02/03 01:39:45;;;;;;;7.6;4.4;;;;;;;6.29;80.57;98750;;;;
2024/02/03 01:50:46;;;;;;;7.6;4.4;;;;;;;6.24;81.07;98736.666666667;;;;
2024/02/03 02:01:45;;;;;;;12.3;6.6;;;;;;;6.25;81.11;98720;;;;
2024/02/03 02:11:46;;;;;;;12.3;6.6;;;;;;;6.35;81.27;98716.666666667;;;;
2024/02/03 02:22:45;;;;;;;10;5.9;;;;;;;6.33;81.05;98693.333333333;;;;
2024/02/03 02:32:45;;;;;;;10;5.9;;;;;;;6.43;80.51;98685;;;;
2024/02/03 02:42:45;;;;;;;10;5.9;;;;;;;6.57;79.31;98680;;;;
2024/02/03 02:53:45;;;;;;;10.7;5.7;;;;;;;6.72;78.04;98673.333333333;;;;
2024/02/03 03:03:45;;;;;;;10.7;5.7;;;;;;;6.82;77.44;98666.666666667;;;;
2024/02/03 03:13:46;;;;;;;10.7;5.7;;;;;;;6.94;76.92;98678.333333333;;;;
2024/02/03 03:23:45;;;;;;;7.1;4.4;;;;;;;7.08;76.73;98690;;;;
2024/02/03 03:33:46;;;;;;;7.1;4.4;;;;;;;7.19;76.23;98701.666666667;;;;
2024/02/03 03:44:46;;;;;;;7.1;4.4;;;;;;;7.15;76.66;98696.666666667;;;;
2024/02/03 03:54:46;;;;;;;7.3;4.3;;;;;;;7.2;76.86;98695;;;;
2024/02/03 04:05:45;;;;;;;7.3;4.3;;;;;;;7.24;77.01;98698.333333333;;;;
2024/02/03 04:15:46;;;;;;;7.3;4.3;;;;;;;7.29;76.74;98706.666666667;;;;
2024/02/03 04:26:45;;;;;;;10;4.9;;;;;;;7.35;76.23;98706.666666667;;;;
2024/02/03 04:36:46;;;;;;;10;4.9;;;;;;;7.36;76.36;98713.333333333;;;;
2024/02/03 04:46:46;;;;;;;10;4.9;;;;;;;7.43;76.43;98720;;;;
2024/02/03 04:56:46;;;;;;;8;5;;;;;;;7.42;76.74;98728.333333333;;;;
2024/02/03 05:07:46;;;;;;;8;5;;;;;;;7.45;76.73;98723.333333333;;;;
2024/02/03 05:18:45;;;;;;;8;5;;;;;;;7.45;77.36;98725;;;;
2024/02/03 05:28:46;;;;;;;7.6;4.4;;;;;;;7.43;77.76;98716.666666667;;;;
2024/02/03 05:39:46;;;;;;;7.6;4.4;;;;;;;7.39;77.8;98726.666666667;;;;
2024/02/03 05:49:45;;;;;;;7.6;4.4;;;;;;;7.45;77.52;98711.666666667;;;;
2024/02/03 06:00:46;;;;;;;7.4;4.2;;;;;;;7.51;77.1;98706.666666667;;;;
2024/02/03 06:10:46;;;;;;;7.4;4.2;;;;;;;7.61;76.67;98738.333333333;;;;
2024/02/03 06:21:46;;;;;;;7.6;4.1;;;;;;;7.71;76.49;98741.666666667;;;;
2024/02/03 06:32:45;;;;;;;7.6;4.1;;;;;;;7.74;76.48;98735;;;;
2024/02/03 06:42:46;;;;;;;7.6;4.1;;;;;;;7.78;76.36;98740;;;;
2024/02/03 06:53:46;;;;;;;7.8;3.4;;;;;;;7.8;76.42;98736.666666667;;;;
2024/02/03 07:03:46;;;;;;;7.8;3.4;;;;;;;7.82;76.27;98750;;;;
2024/02/03 07:14:46;;;;;;;7.8;3.4;;;;;;;7.91;76.52;98758.333333333;;;;
2024/02/03 07:25:46;;;;;;;6.2;4;;;;;;;8.02;76.24;98768.333333333;;;;
2024/02/03 07:35:46;;;;;;;6.2;4;;;;;;;8.14;75.82;98758.333333333;;;;
2024/02/03 07:45:46;;;;;;;6.2;4;;;;;;;8.22;75.67;98748.333333333;;;;
2024/02/03 07:56:46;;;;;;;7.7;4.2;;;;;;;8.37;75.26;98748.333333333;;;;
2024/02/03 08:06:46;;;;;;;7.7;4.2;;;;;;;8.43;75.4;98746.666666667;;;;
2024/02/03 08:17:46;;;;;;;7.7;4.2;;;;;;;8.56;75.03;98743.333333333;;;;
2024/02/03 08:28:46;;;;;;;6.4;4;;;;;;;8.69;75.43;98741.666666667;;;;
2024/02/03 08:39:46;;;;;;;6.4;4;;;;;;;8.72;75.4;98743.333333333;;;;
2024/02/03 08:49:46;;;;;;;6.4;4;;;;;;;8.67;76.17;98750;;;;
2024/02/03 08:59:46;;;;;;;7.9;3.9;;;;;;;8.65;76.56;98756.666666667;;;;
2024/02/03 09:10:46;;;;;;;7.9;3.9;;;;;;;8.72;75.94;98756.666666667;;;;
2024/02/03 09:21:46;;;;;;;8.2;4.7;;;;;;;8.88;75.43;98741.666666667;;;;
2024/02/03 09:31:46;;;;;;;8.2;4.7;;;;;;;9.03;74.84;98741.666666667;;;;
2024/02/03 09:41:46;;;;;;;8.2;4.7;;;;;;;9.14;74.49;98735;;;;
2024/02/03 09:51:46;;;;;;;8.6;5;;;;;;;9.07;74.82;98750;;;;
2024/02/03 10:01:46;;;;;;;8.6;5;;;;;;;9.04;75.24;98740;;;;
2024/02/03 10:12:46;;;;;;;8.6;5;;;;;;;9.29;74.45;98721.666666667;;;;
2024/02/03 10:23:46;;;;;;;8.1;5;;;;;;;9.42;73.61;98720;;;;
2024/02/03 10:34:46;;;;;;;8.1;5;;;;;;;9.76;72.64;98715;;;;
2024/02/03 10:44:46;;;;;;;8.1;5;;;;;;;9.7;72.84;98718.333333333;;;;
2024/02/03 10:54:46;;;;;;;8.4;4.7;;;;;;;9.89;72.54;98711.666666667;;;;
2024/02/03 11:04:46;;;;;;;8.4;4.7;;;;;;;9.98;72.26;98713.333333333;;;;
2024/02/03 11:14:46;;;;;;;8.4;4.7;;;;;;;10.24;71.94;98716.666666667;;;;
2024/02/03 11:25:46;;;;;;;6.7;3.9;;;;;;;10;73.91;98705;;;;
2024/02/03 11:35:47;;;;;;;6.7;3.9;;;;;;;10.05;73.66;98698.333333333;;;;
2024/02/03 11:45:47;;;;;;;6.7;3.9;;;;;;;9.89;74.86;98690;;;;
2024/02/03 11:56:46;;;;;;;7.2;4.5;;;;;;;9.72;75.78;98681.666666667;;;;
2024/02/03 12:06:46;;;;;;;7.2;4.5;;;;;;;9.67;76.59;98690;;;;
2024/02/03 12:16:46;;;;;;;7.2;4.5;;;;;;;9.66;77.13;98701.666666667;;;;
2024/02/03 12:27:46;;;;;;;9;5.5;;;;;;;9.79;77.39;98705;;;;
2024/02/03 12:38:46;;;;;;;9;5.5;;;;;;;9.81;77.2;98721.666666667;;;;
2024/02/03 12:49:46;;;;;;;9;5.5;;;;;;;9.57;79.05;98733.333333333;;;;
2024/02/03 12:59:46;;;;;;;8.6;5.3;;;;;;;9.61;79.18;98733.333333333;;;;
2024/02/03 13:10:46;;;;;;;8.6;5.3;;;;;;;9.65;79.25;98723.333333333;;;;
2024/02/03 13:21:46;;;;;;;7.3;4.7;;;;;;;9.8;79.32;98723.333333333;;;;
2024/02/03 13:31:46;;;;;;;7.3;4.7;;;;;;;9.72;79.42;98718.333333333;;;;
2024/02/03 13:41:46;;;;;;;7.3;4.7;;;;;;;9.53;79.96;98725;;;;
2024/02/03 13:52:46;;;;;;;7.9;4;;;;;;;9.52;79.8;98726.666666667;;;;
2024/02/03 14:03:46;;;;;;;7.9;4;;;;;;;9.54;79.91;98723.333333333;;;;
2024/02/03 14:13:46;;;;;;;7.9;4;;;;;;;9.55;79.25;98720;;;;
2024/02/03 14:23:46;;;;;;;7;3.3;;;;;;;9.74;78.16;98720;;;;
2024/02/03 14:34:46;;;;;;;7;3.3;;;;;;;9.74;77.49;98713.333333333;;;;
2024/02/03 14:44:46;;;;;;;7;3.3;;;;;;;9.59;79.13;98716.666666667;;;;
2024/02/03 14:55:46;;;;;;;5.7;3.1;;;;;;;9.66;78.37;98711.666666667;;;;
2024/02/03 15:05:46;;;;;;;5.7;3.1;;;;;;;9.65;78.12;98705;;;;
2024/02/03 15:15:46;;;;;;;5.7;3.1;;;;;;;9.68;78.48;98710;;;;
2024/02/03 15:26:46;;;;;;;6.1;3.8;;;;;;;9.57;78.48;98723.333333333;;;;
2024/02/03 15:36:46;;;;;;;6.1;3.8;;;;;;;9.59;77.53;98730;;;;
2024/02/03 15:47:46;;;;;;;6.1;3.8;;;;;;;9.53;78.41;98746.666666667;;;;
2024/02/03 15:57:46;;;;;;;7.6;3.3;;;;;;;9.32;80.79;98770;;;;
2024/02/03 16:08:46;;;;;;;7.6;3.3;;;;;;;8.77;86.21;98795;;;;
2024/02/03 16:18:46;;;;;;;7.6;3.3;;;;;;;8.61;87.35;98805;;;;
2024/02/03 16:29:46;;;;;;;7.6;3.8;;;;;;;8.2;89.4;98791.666666667;;;;
2024/02/03 16:39:46;;;;;;;7.6;3.8;;;;;;;8.19;89.22;98781.666666667;;;;
2024/02/03 16:49:46;;;;;;;7.6;3.8;;;;;;;8.19;88.39;98760;;;;
2024/02/03 16:59:47;;;;;;;11.6;5.9;;;;;;;8.13;88.3;98753.333333333;;;;
2024/02/03 17:10:46;;;;;;;11.6;5.9;;;;;;;8.09;87.32;98760;;;;
2024/02/03 17:21:46;;;;;;;12.7;4.9;;;;;;;8.28;86.41;98755;;;;
2024/02/03 17:32:46;;;;;;;12.7;4.9;;;;;;;8.35;85.48;98755;;;;
2024/02/03 17:43:46;;;;;;;12.7;4.9;;;;;;;8.5;84.54;98766.666666667;;;;
2024/02/03 17:53:46;;;;;;;6.8;3.2;;;;;;;8.43;85.31;98766.666666667;;;;
2024/02/03 18:04:46;;;;;;;6.8;3.2;;;;;;;8.39;85.29;98753.333333333;;;;
2024/02/03 18:15:46;;;;;;;6.8;3.2;;;;;;;8.42;85.16;98761.666666667;;;;
2024/02/03 18:25:46;;;;;;;7.3;4.1;;;;;;;8.49;85.37;98750;;;;
2024/02/03 18:36:46;;;;;;;7.3;4.1;;;;;;;8.55;84.76;98738.333333333;;;;
2024/02/03 18:46:46;;;;;;;7.3;4.1;;;;;;;8.57;83.75;98740;;;;
2024/02/03 18:56:46;;;;;;;6.3;3;;;;;;;8.72;82.56;98758.333333333;;;;
2024/02/03 19:07:46;;;;;;;6.3;3;;;;;;;8.82;82.2;98755;;;;
2024/02/03 19:17:46;;;;;;;6.3;3;;;;;;;8.8;82.06;98751.666666667;;;;
2024/02/03 19:28:46;;;;;;;5.3;2.8;;;;;;;8.82;81.85;98740;;;;
2024/02/03 19:38:46;;;;;;;5.3;2.8;;;;;;;8.89;80.4;98738.333333333;;;;
2024/02/03 19:49:46;;;;;;;5.3;2.8;;;;;;;8.91;80.84;98756.666666667;;;;
2024/02/03 19:59:48;;;;;;;11;3.4;;;;;;;8.87;81.59;98758.333333333;;;;
2024/02/03 20:10:46;;;;;;;11;3.4;;;;;;;8.78;81.62;98751.666666667;;;;
2024/02/03 20:21:46;;;;;;;6.3;3.7;;;;;;;8.64;83.31;98756.666666667;;;;
2024/02/03 20:31:46;;;;;;;6.3;3.7;;;;;;;8.37;85.85;98760;;;;
2024/02/03 20:42:46;;;;;;;6.3;3.7;;;;;;;8.23;85.98;98753.333333333;;;;
2024/02/03 20:52:46;;;;;;;6.6;3.2;;;;;;;8.25;85.7;98741.666666667;;;;
2024/02/03 21:02:46;;;;;;;6.6;3.2;;;;;;;8.3;85.74;98735;;;;
2024/02/03 21:12:46;;;;;;;6.6;3.2;;;;;;;8.27;85.43;98730;;;;
2024/02/03 21:22:46;;;;;;;7.2;4.1;;;;;;;8.32;84.91;98721.666666667;;;;
2024/02/03 21:33:46;;;;;;;7.2;4.1;;;;;;;8.28;85.49;98710;;;;
2024/02/03 21:43:46;;;;;;;7.2;4.1;;;;;;;8.33;84.55;98706.666666667;;;;
2024/02/03 21:54:46;;;;;;;7.9;4;;;;;;;8.41;83.69;98696.666666667;;;;
2024/02/03 22:04:46;;;;;;;7.9;4;;;;;;;8.44;83.11;98695;;;;
2024/02/03 22:15:46;;;;;;;7.9;4;;;;;;;8.48;83.69;98691.666666667;;;;
2024/02/03 22:25:46;;;;;;;6.6;3.7;;;;;;;8.51;82.73;98681.666666667;;;;
2024/02/03 22:35:46;;;;;;;6.6;3.7;;;;;;;8.49;82.44;98683.333333333;;;;
2024/02/03 22:46:46;;;;;;;6.6;3.7;;;;;;;8.5;82.23;98673.333333333;;;;
2024/02/03 22:57:46;;;;;;;6.9;3.5;;;;;;;8.38;83.53;98673.333333333;;;;
2024/02/03 23:07:46;;;;;;;6.9;3.5;;;;;;;8.28;83.1;98663.333333333;;;;
2024/02/03 23:17:46;;;;;;;6.9;3.5;;;;;;;8.37;82.73;98650;;;;
2024/02/03 23:27:46;;;;;;;7.6;3.1;;;;;;;8.47;81.74;98651.666666667;;;;
2024/02/03 23:37:46;;;;;;;7.6;3.1;;;;;;;8.44;81.98;98640;;;;
2024/02/03 23:48:46;;;;;;;7.6;3.1;;;;;;;8.25;84.56;98646.666666667;;;;
2024/02/03 23:59:46;;;;;;;8.5;3.5;;;;;;;7.97;87.06;98625;;;;
